Atb Corpus Christi — WDE5099 — position and weather

sailwx.info

Track history (hours):
 
Tides and Currents Weather Stations Pressure Air Temp Water Temp Dewpoint Dewpoint Depression Visibility Wind Speed Wind Dir Waves Ship Positions

Atb Corpus Christi

Owner: US Shipping Corp, EDISON, NJ. More information available from US FCC via Universal Licensing System and Coast Guard Vessel Documentation Center.

Last reported at 2018-Jan-20 22:01 UTC. Time now 2018-Jan-21 12:42 UTC.
Position N 26°27' W 079°48'.

Length 184 m; draft 9.4 m.

Type: Towing. MMSI: 367362010.

Date/timePositionNaut miles runAvg speedWind from/ knotsBaromVisibWave heightAir tempDewpointWater temp
2018-Jan-20 22:01N 26°27' W 079°48'014.2
2018-Jan-20 22:00N 26°27' W 079°48'714.7
2018-Jan-20 21:30N 26°20' W 079°48'714.5
2018-Jan-20 21:00N 26°13' W 079°49'714.5
2018-Jan-20 20:30N 26°05' W 079°50'714.4
2018-Jan-20 20:00N 25°58' W 079°51'714.0
2018-Jan-20 19:30N 25°51' W 079°53'713.8
2018-Jan-20 19:00N 25°45' W 079°54'713.8
2018-Jan-20 18:30N 25°38' W 079°56'713.6
2018-Jan-20 18:00N 25°31' W 079°57'  
2018-Jan-11 04:49N 25°29' W 079°48'3 7.5
2018-Jan-11 04:21N 25°32' W 079°48'3 7.5
2018-Jan-11 04:00N 25°35' W 079°48'4 7.7
2018-Jan-11 03:30N 25°39' W 079°48'4 7.9
2018-Jan-11 03:00N 25°43' W 079°48'4 7.9
2018-Jan-11 02:30N 25°47' W 079°48'4 7.9
2018-Jan-11 02:00N 25°51' W 079°48'4 8.2
2018-Jan-11 01:28N 25°54' W 079°51'4 9.1
2018-Jan-11 01:00N 25°57' W 079°55'5 9.7
2018-Jan-11 00:30N 26°00' W 079°59'510.0
2018-Jan-11 00:01N 26°03' W 080°03'4 8.3
2018-Jan-10 23:30N 26°06' W 080°07'0 0.8
2018-Jan-10 23:00N 26°06' W 080°07'0 0.0
2018-Jan-10 22:30N 26°06' W 080°07'  
Track history (hours):
 
Tides and Currents Weather Stations Pressure Air Temp Water Temp Dewpoint Dewpoint Depression Visibility Wind Speed Wind Dir Waves Ship Positions

Atb Corpus Christi

Owner: US Shipping Corp, EDISON, NJ. More information available from US FCC via Universal Licensing System and Coast Guard Vessel Documentation Center.

Last reported at 2018-Jan-20 22:01 UTC. Time now 2018-Jan-21 12:42 UTC.
Position N 26°27' W 079°48'.

Length 184 m; draft 9.4 m.

Type: Towing. MMSI: 367362010.

Date/timePositionNaut miles runAvg speedWind from/ knotsBaromVisibWave heightAir tempDewpointWater temp
2018-Jan-20 22:01N 26°27' W 079°48'014.2
2018-Jan-20 22:00N 26°27' W 079°48'714.7
2018-Jan-20 21:30N 26°20' W 079°48'714.5
2018-Jan-20 21:00N 26°13' W 079°49'714.5
2018-Jan-20 20:30N 26°05' W 079°50'714.4
2018-Jan-20 20:00N 25°58' W 079°51'714.0
2018-Jan-20 19:30N 25°51' W 079°53'713.8
2018-Jan-20 19:00N 25°45' W 079°54'713.8
2018-Jan-20 18:30N 25°38' W 079°56'713.6
2018-Jan-20 18:00N 25°31' W 079°57'  
2018-Jan-11 04:49N 25°29' W 079°48'3 7.5
2018-Jan-11 04:21N 25°32' W 079°48'3 7.5
2018-Jan-11 04:00N 25°35' W 079°48'4 7.7
2018-Jan-11 03:30N 25°39' W 079°48'4 7.9
2018-Jan-11 03:00N 25°43' W 079°48'4 7.9
2018-Jan-11 02:30N 25°47' W 079°48'4 7.9
2018-Jan-11 02:00N 25°51' W 079°48'4 8.2
2018-Jan-11 01:28N 25°54' W 079°51'4 9.1
2018-Jan-11 01:00N 25°57' W 079°55'5 9.7
2018-Jan-11 00:30N 26°00' W 079°59'510.0
2018-Jan-11 00:01N 26°03' W 080°03'4 8.3
2018-Jan-10 23:30N 26°06' W 080°07'0 0.8
2018-Jan-10 23:00N 26°06' W 080°07'0 0.0
2018-Jan-10 22:30N 26°06' W 080°07'  

Dump ship's entire track history